Terminal Aerodrome Forecast
Issued by NWS Melbourne, FL

Home | Current Version | Previous Version | Text Only | Print | Product List | Glossary On
Versions: 1 2 3 4 5 6 7 8 9 10 11 12 13 14 15 16 17 18 19 20 21 22
148
FTUS42 KMLB 062329
TAFDAB
TAF
KDAB 062329Z 0700/0724 35008KT 6SM -RA BR SCT006 BKN025 OVC040
      TEMPO 0700/0703 2SM -RA BR OVC006
     FM070300 34012G20KT P6SM VCSH OVC010
      TEMPO 0703/0706 5SM -RA BR OVC006
     FM070800 31015G25KT P6SM OVC010
     FM071500 31020G29KT P6SM BKN020=

USA.gov is the U.S. government's official web portal to all federal, state and local government web resources and services.